Time;durP1;ratioP1;P1;durP2;ratioP2;P2;SDS_P1;SDS_P2;PMS_P1;PMS_P2;Temp;Humidity;BMP_temperature;BMP_pressure;BME280_temperature;BME280_humidity;BME280_pressure;Samples;Min_cycle;Max_cycle;Signal;HPM_P1;HPM_P2
2022/01/14 00:00:44;;;;;;;42.40;21.73;;;;;;;3.57;86.29;102677.81;7397484;19;20370;-65
2022/01/14 00:03:12;;;;;;;42.63;22.10;;;;;;;3.56;85.38;102683.84;7397443;19;20498;-65
2022/01/14 00:05:41;;;;;;;40.22;21.77;;;;;;;3.58;85.74;102673.53;7397060;19;20015;-65
2022/01/14 00:08:11;;;;;;;36.42;21.58;;;;;;;3.60;85.94;102669.25;7397718;19;20032;-65
2022/01/14 00:10:41;;;;;;;40.00;20.52;;;;;;;3.59;85.04;102646.75;7397703;19;20015;-65
2022/01/14 00:13:26;;;;;;;44.33;21.20;;;;;;;3.61;85.73;102671.03;7397541;19;20028;-65
2022/01/14 00:15:55;;;;;;;42.00;21.45;;;;;;;3.60;85.77;102653.69;7397329;19;20018;-65
2022/01/14 00:18:23;;;;;;;39.03;21.52;;;;;;;3.59;85.22;102662.31;7396332;19;20015;-66
2022/01/14 00:20:51;;;;;;;37.20;22.38;;;;;;;3.58;85.75;102644.97;7397744;19;20010;-65
2022/01/14 00:23:27;;;;;;;39.03;22.08;;;;;;;3.60;85.52;102648.50;7397232;19;20011;-65
2022/01/14 00:33:57;;;;;;;40.80;21.95;;;;;;;3.62;85.56;102638.19;7397020;19;20007;-65
2022/01/14 00:36:26;;;;;;;37.47;21.67;;;;;;;3.62;85.79;102657.22;7395998;19;20044;-65
2022/01/14 00:38:56;;;;;;;38.60;21.80;;;;;;;3.65;86.32;102653.88;7396685;19;20010;-65
2022/01/14 00:41:25;;;;;;;40.35;20.92;;;;;;;3.64;85.99;102653.00;7397058;19;20382;-65
2022/01/14 00:44:00;;;;;;;45.78;22.80;;;;;;;3.65;86.06;102653.88;7396544;19;20007;-65
2022/01/14 00:46:28;;;;;;;38.17;21.65;;;;;;;3.64;85.85;102634.81;7395710;19;20018;-65
2022/01/14 00:48:57;;;;;;;41.33;22.65;;;;;;;3.64;85.56;102657.28;7396352;19;20365;-65
2022/01/14 00:51:25;;;;;;;41.00;23.02;;;;;;;3.64;85.89;102642.59;7396350;19;20018;-65
2022/01/14 00:53:56;;;;;;;41.10;22.05;;;;;;;3.65;85.66;102640.88;7396175;19;20015;-65
2022/01/14 00:56:32;;;;;;;38.83;21.98;;;;;;;3.67;86.07;102640.09;7395026;19;20541;-65
2022/01/14 01:01:42;;;;;;;40.92;22.75;;;;;;;3.68;86.34;102649.66;7395069;19;20100;-65
2022/01/14 01:04:10;;;;;;;37.13;21.42;;;;;;;3.69;86.32;102646.25;7395868;19;20029;-65
2022/01/14 01:06:39;;;;;;;42.47;21.45;;;;;;;3.70;86.11;102652.31;7394426;19;20360;-65
2022/01/14 01:09:13;;;;;;;39.75;22.17;;;;;;;3.72;86.24;102650.69;7395797;19;20014;-65
2022/01/14 01:11:49;;;;;;;44.90;22.55;;;;;;;3.72;85.81;102650.69;7396532;19;20018;-65
2022/01/14 01:14:21;;;;;;;41.10;22.83;;;;;;;3.71;86.22;102654.09;7395730;19;20018;-65
2022/01/14 01:16:50;;;;;;;43.88;22.80;;;;;;;3.72;86.12;102653.28;7394711;19;20022;-65
2022/01/14 01:19:18;;;;;;;43.15;23.42;;;;;;;3.72;86.14;102648.09;7394493;19;20007;-65
2022/01/14 01:21:47;;;;;;;45.58;23.90;;;;;;;3.70;85.76;102650.63;7395487;19;20018;-65
2022/01/14 01:24:18;;;;;;;42.75;24.33;;;;;;;3.69;85.96;102651.44;7395389;19;20018;-65
2022/01/14 01:26:46;;;;;;;46.40;23.70;;;;;;;3.71;86.36;102649.78;7393783;19;20369;-65
2022/01/14 01:29:44;;;;;;;50.38;25.20;;;;;;;3.71;86.80;102651.50;7395191;19;20019;-65
2022/01/14 01:32:12;;;;;;;48.92;26.40;;;;;;;3.72;86.61;102650.69;7395159;19;20021;-65
2022/01/14 01:34:40;;;;;;;44.03;23.27;;;;;;;3.72;86.95;102646.34;7395100;19;20098;-65
2022/01/14 01:37:08;;;;;;;45.05;23.13;;;;;;;3.73;86.68;102648.13;7393626;19;20040;-65
2022/01/14 01:39:39;;;;;;;48.50;24.77;;;;;;;3.74;86.96;102643.81;7394524;19;20361;-65
2022/01/14 01:42:11;;;;;;;42.22;23.38;;;;;;;3.74;86.92;102646.41;7395216;19;20015;-64
2022/01/14 01:44:43;;;;;;;48.20;23.63;;;;;;;3.73;86.60;102650.72;7395180;19;20017;-65
2022/01/14 01:47:11;;;;;;;46.05;24.88;;;;;;;3.74;87.40;102644.72;7393277;19;20018;-64
2022/01/14 01:49:46;;;;;;;49.58;24.90;;;;;;;3.75;87.35;102640.41;7394292;19;20363;-65
2022/01/14 01:52:15;;;;;;;51.38;25.80;;;;;;;3.75;87.58;102643.88;7394546;19;20011;-65
2022/01/14 01:54:45;;;;;;;46.78;25.55;;;;;;;3.75;86.68;102641.28;7394423;19;20026;-65
2022/01/14 01:57:14;;;;;;;49.08;24.15;;;;;;;3.69;87.15;102609.91;7393002;19;20360;-65
2022/01/14 01:59:49;;;;;;;48.65;25.25;;;;;;;3.74;86.93;102629.13;7394367;19;20018;-65
2022/01/14 02:02:17;;;;;;;50.70;27.27;;;;;;;3.75;87.45;102624.81;7394515;19;20049;-65
2022/01/14 02:04:45;;;;;;;49.95;26.08;;;;;;;3.74;87.32;102616.16;7394198;19;20033;-65
2022/01/14 02:07:14;;;;;;;52.47;27.02;;;;;;;3.74;87.84;102616.16;7392491;19;20040;-65
2022/01/14 02:09:42;;;;;;;50.70;26.45;;;;;;;3.74;87.85;102605.78;7393747;19;20015;-65
2022/01/14 02:12:13;;;;;;;50.08;26.98;;;;;;;3.74;88.00;102610.06;7393740;19;20523;-65
2022/01/14 02:15:07;;;;;;;56.13;25.70;;;;;;;3.73;88.00;102608.31;7402584;19;20019;-65
2022/01/14 02:17:52;;;;;;;54.08;27.90;;;;;;;3.71;88.46;102599.56;7398292;19;20479;-66
2022/01/14 02:23:06;;;;;;;53.30;25.50;;;;;;;3.70;88.89;102601.31;7401303;19;20014;-62
2022/01/14 02:25:36;;;;;;;54.28;26.60;;;;;;;3.70;89.16;102606.50;7401158;19;20014;-65
2022/01/14 02:28:08;;;;;;;61.60;28.67;;;;;;;3.68;89.61;102597.75;7398466;19;20018;-65
2022/01/14 02:30:38;;;;;;;56.50;28.20;;;;;;;3.68;89.71;102604.66;7401291;19;20082;-65
2022/01/14 02:33:07;;;;;;;55.13;28.38;;;;;;;3.66;90.26;102607.19;7401281;19;20078;-64
2022/01/14 02:35:39;;;;;;;54.88;28.35;;;;;;;3.61;90.18;102594.88;7400378;19;20015;-65
2022/01/14 02:38:08;;;;;;;60.25;29.40;;;;;;;3.63;90.51;102604.50;7400312;19;20479;-65
2022/01/14 02:40:36;;;;;;;56.47;28.33;;;;;;;3.63;90.74;102598.41;7400563;19;20010;-65
2022/01/14 02:43:11;;;;;;;53.80;27.48;;;;;;;3.61;91.21;102590.56;7400421;19;20039;-65
2022/01/14 02:45:39;;;;;;;62.20;28.98;;;;;;;3.59;91.54;102595.69;7400475;19;20015;-65
2022/01/14 02:48:08;;;;;;;60.67;29.08;;;;;;;3.51;92.20;102584.13;7397969;19;20019;-65
2022/01/14 02:50:42;;;;;;;64.82;29.52;;;;;;;3.55;91.69;102585.13;7400163;19;20019;-65
2022/01/14 02:53:26;;;;;;;61.13;27.63;;;;;;;3.53;92.29;102592.00;7400145;19;20032;-65
2022/01/14 02:55:56;;;;;;;62.33;30.25;;;;;;;3.52;92.21;102574.66;7399853;19;20036;-65
2022/01/14 02:58:25;;;;;;;70.40;30.33;;;;;;;3.51;92.35;102578.06;7399922;19;20010;-65
2022/01/14 03:00:55;;;;;;;62.22;29.75;;;;;;;3.51;92.42;102575.47;7399783;19;20050;-64
2022/01/14 03:03:25;;;;;;;65.65;29.60;;;;;;;3.48;93.10;102577.97;7399735;19;20040;-65
2022/01/14 03:05:56;;;;;;;63.60;29.45;;;;;;;3.47;93.41;102579.66;7399171;19;20014;-65
2022/01/14 03:08:25;;;;;;;67.15;30.52;;;;;;;3.44;93.79;102566.59;7397624;19;20011;-65
2022/01/14 03:10:57;;;;;;;67.70;30.83;;;;;;;3.43;94.01;102570.00;7399389;19;20452;-65
2022/01/14 03:13:26;;;;;;;74.10;33.50;;;;;;;3.42;94.44;102582.13;7401710;19;20022;-67
2022/01/14 03:15:54;;;;;;;71.35;32.33;;;;;;;3.39;94.71;102569.00;7400637;19;20014;-65
2022/01/14 03:18:33;;;;;;;71.22;32.45;;;;;;;3.39;94.46;102566.41;7402208;19;20018;-65
2022/01/14 03:21:12;;;;;;;81.45;31.85;;;;;;;3.38;94.58;102559.44;7399776;19;20015;-65
2022/01/14 03:23:46;;;;;;;74.22;31.70;;;;;;;3.33;95.47;102558.41;7400506;19;20032;-65
2022/01/14 03:26:15;;;;;;;78.95;33.78;;;;;;;3.36;95.44;102565.41;7398329;19;20329;-65
2022/01/14 03:28:43;;;;;;;80.32;32.22;;;;;;;3.34;95.78;102562.75;7398710;19;20601;-65
2022/01/14 03:31:12;;;;;;;80.82;32.78;;;;;;;3.33;95.73;102555.81;7398768;19;20018;-65
2022/01/14 03:33:41;;;;;;;88.45;34.55;;;;;;;3.35;95.74;102568.81;7399500;19;20019;-65
2022/01/14 03:36:12;;;;;;;76.35;31.92;;;;;;;3.35;95.64;102561.03;7397871;19;20015;-65
2022/01/14 03:38:40;;;;;;;78.88;33.63;;;;;;;3.33;96.04;102555.81;7398840;19;20011;-65
2022/01/14 03:41:09;;;;;;;78.30;31.45;;;;;;;3.33;96.18;102550.63;7398624;19;20015;-65
2022/01/14 03:43:39;;;;;;;84.13;33.63;;;;;;;3.32;96.15;102541.06;7398582;19;20006;-65
2022/01/14 03:46:07;;;;;;;82.20;33.28;;;;;;;3.30;96.52;102527.16;7397752;19;20022;-65
2022/01/14 03:48:35;;;;;;;82.70;33.30;;;;;;;3.29;96.46;102525.41;7395948;19;20479;-65
2022/01/14 03:51:04;;;;;;;91.95;31.98;;;;;;;3.29;96.61;102538.38;7398374;19;20041;-65
2022/01/14 03:53:35;;;;;;;79.18;32.22;;;;;;;3.29;96.68;102550.47;7397893;19;20007;-65
2022/01/14 03:56:03;;;;;;;81.88;33.90;;;;;;;3.28;96.65;102546.97;7397663;19;20040;-65
2022/01/14 03:58:31;;;;;;;87.18;32.85;;;;;;;3.28;96.34;102544.38;7397946;19;20015;-65
2022/01/14 04:01:00;;;;;;;79.90;31.85;;;;;;;3.27;96.68;102542.59;7397808;19;20014;-65
2022/01/14 04:03:28;;;;;;;94.70;34.30;;;;;;;3.27;96.71;102545.19;7397882;19;20015;-65
2022/01/14 04:05:56;;;;;;;86.32;32.80;;;;;;;3.28;96.79;102541.78;7396770;19;20479;-65
2022/01/14 04:08:24;;;;;;;82.07;33.95;;;;;;;3.28;96.75;102539.19;7395929;19;20025;-65
2022/01/14 04:10:56;;;;;;;89.30;33.25;;;;;;;3.26;96.59;102525.25;7397576;19;20010;-65
2022/01/14 04:13:37;;;;;;;93.03;32.63;;;;;;;3.25;97.24;102519.19;7397870;19;20011;-65
2022/01/14 04:16:03;;;;;;;87.88;33.65;;;;;;;3.25;97.31;102523.53;7397277;19;20015;-65
2022/01/14 04:18:31;;;;;;;86.45;32.97;;;;;;;3.24;97.52;102517.44;7397452;19;20138;-64
2022/01/14 04:20:59;;;;;;;90.00;33.55;;;;;;;3.23;97.47;102507.88;7395832;19;20482;-65
2022/01/14 04:23:27;;;;;;;97.57;34.83;;;;;;;3.21;97.47;102496.56;7396855;19;20483;-65
2022/01/14 04:25:59;;;;;;;102.22;35.75;;;;;;;3.21;97.74;102496.56;7396407;19;20022;-65
2022/01/14 04:28:32;;;;;;;99.75;34.05;;;;;;;3.18;97.90;102499.03;7395902;19;20010;-65
2022/01/14 04:31:01;;;;;;;93.68;35.30;;;;;;;3.19;97.48;102502.53;7397186;19;20018;-65
2022/01/14 04:33:31;;;;;;;88.82;32.75;;;;;;;3.19;97.65;102502.53;7396473;19;20032;-65
2022/01/14 04:36:00;;;;;;;82.63;32.90;;;;;;;3.17;97.95;102505.09;7394110;19;20028;-66
2022/01/14 04:38:29;;;;;;;93.72;35.25;;;;;;;3.17;97.92;102506.78;7396148;19;20014;-64
2022/01/14 04:41:00;;;;;;;94.18;32.95;;;;;;;3.15;98.24;102490.28;7396232;19;20011;-65
2022/01/14 04:43:29;;;;;;;93.38;33.85;;;;;;;3.14;98.87;102506.69;7396133;19;20358;-65
2022/01/14 04:46:25;;;;;;;86.57;32.80;;;;;;;3.13;98.42;102498.00;7395696;19;20015;-65
2022/01/14 04:48:52;;;;;;;84.78;31.88;;;;;;;3.13;98.36;102502.31;7393603;19;20021;-65
2022/01/14 04:51:21;;;;;;;92.47;32.55;;;;;;;3.04;98.61;102484.69;7396152;19;20014;-65
2022/01/14 04:53:50;;;;;;;91.00;32.70;;;;;;;3.11;98.27;102502.25;7396083;19;20018;-66
2022/01/14 04:56:21;;;;;;;82.40;31.02;;;;;;;3.10;98.26;102496.16;7395191;19;20015;-66
2022/01/14 04:58:49;;;;;;;80.07;30.92;;;;;;;3.09;98.46;102489.22;7396117;19;20018;-66
2022/01/14 05:01:18;;;;;;;86.47;33.30;;;;;;;3.08;98.21;102484.88;7395367;19;20014;-66
2022/01/14 05:03:46;;;;;;;90.47;33.40;;;;;;;3.08;98.15;102489.16;7395667;19;20032;-66
2022/01/14 05:06:14;;;;;;;89.30;32.25;;;;;;;3.09;98.43;102491.81;7394658;19;20044;-66
2022/01/14 05:08:42;;;;;;;89.10;31.17;;;;;;;3.07;98.21;102483.09;7394142;19;20015;-66
2022/01/14 05:11:23;;;;;;;85.78;31.40;;;;;;;3.07;98.21;102485.69;7395122;19;20377;-65
2022/01/14 05:13:54;;;;;;;77.78;29.17;;;;;;;3.09;98.21;102483.16;7395955;19;20032;-66
2022/01/14 05:16:22;;;;;;;73.65;30.58;;;;;;;3.07;98.07;102489.97;7395111;19;20026;-66
2022/01/14 05:18:50;;;;;;;86.00;33.67;;;;;;;3.08;98.14;102482.28;7394993;19;20007;-66
2022/01/14 05:21:19;;;;;;;76.75;32.38;;;;;;;3.09;97.85;102481.44;7395016;19;20026;-65
2022/01/14 05:23:48;;;;;;;73.43;31.25;;;;;;;3.10;97.85;102482.34;7395050;19;20019;-66
2022/01/14 05:26:16;;;;;;;74.25;30.27;;;;;;;3.10;97.75;102475.41;7394217;19;20019;-65
2022/01/14 05:28:44;;;;;;;70.70;28.00;;;;;;;3.11;97.92;102484.09;7393337;19;20014;-65
2022/01/14 05:31:15;;;;;;;78.00;30.40;;;;;;;3.09;97.81;102502.19;7394476;19;20353;-66
2022/01/14 05:33:46;;;;;;;72.55;29.42;;;;;;;3.13;97.51;102476.38;7394632;19;20015;-65
2022/01/14 05:36:14;;;;;;;72.32;29.00;;;;;;;3.09;97.55;102477.97;7393957;19;20077;-65
2022/01/14 05:38:42;;;;;;;72.15;29.70;;;;;;;3.14;97.50;102483.34;7394177;19;20355;-65
2022/01/14 05:41:11;;;;;;;71.45;28.60;;;;;;;3.14;97.50;102468.63;7393922;19;20014;-65
2022/01/14 05:43:39;;;;;;;71.00;29.58;;;;;;;3.16;97.16;102471.28;7394771;19;20014;-65
2022/01/14 05:46:07;;;;;;;68.15;27.77;;;;;;;3.17;97.20;102463.59;7393910;19;20015;-66
2022/01/14 05:48:38;;;;;;;64.70;27.90;;;;;;;3.18;97.25;102457.53;7398707;19;20028;-66
2022/01/14 05:51:07;;;;;;;63.60;26.63;;;;;;;3.18;97.00;102451.47;7403228;19;20354;-66
2022/01/14 05:53:35;;;;;;;72.05;29.65;;;;;;;3.18;97.05;102439.38;7401211;19;20024;-66
2022/01/14 05:56:03;;;;;;;70.90;28.90;;;;;;;3.19;97.16;102433.38;7400834;19;20023;-65
2022/01/14 05:58:31;;;;;;;70.55;28.05;;;;;;;3.19;97.30;102437.69;7400324;19;20031;-65
2022/01/14 06:00:59;;;;;;;63.28;26.67;;;;;;;3.17;97.03;102437.66;7401230;19;20028;-66
2022/01/14 06:03:28;;;;;;;66.63;28.48;;;;;;;3.18;97.13;102447.16;7400953;19;20014;-66
2022/01/14 06:05:58;;;;;;;63.00;26.73;;;;;;;3.18;97.08;102441.09;7399893;19;20490;-65
2022/01/14 06:08:27;;;;;;;62.40;27.17;;;;;;;3.17;97.03;102441.94;7397985;19;20346;-64
2022/01/14 06:10:55;;;;;;;61.80;27.55;;;;;;;3.17;96.92;102441.94;7400142;19;20010;-65
2022/01/14 06:13:23;;;;;;;60.05;26.23;;;;;;;3.16;96.84;102430.69;7400978;19;20199;-66
2022/01/14 06:15:51;;;;;;;57.75;26.02;;;;;;;3.18;96.77;102430.72;7400552;19;20354;-66
2022/01/14 06:18:20;;;;;;;64.88;26.85;;;;;;;3.20;96.86;102437.75;7399803;19;20019;-67
2022/01/14 06:20:49;;;;;;;60.30;25.13;;;;;;;3.21;96.16;102447.28;7396994;19;20003;-67
2022/01/14 06:23:19;;;;;;;57.10;25.75;;;;;;;3.20;95.93;102442.94;7400298;19;20028;-67
2022/01/14 06:25:48;;;;;;;65.40;25.40;;;;;;;3.24;95.76;102443.94;7399922;19;20022;-66
2022/01/14 06:28:16;;;;;;;56.67;24.30;;;;;;;3.25;95.60;102448.28;7399630;19;20027;-67
2022/01/14 06:30:44;;;;;;;64.38;26.83;;;;;;;3.23;95.35;102442.16;7400173;19;20353;-66
2022/01/14 06:33:12;;;;;;;53.35;24.27;;;;;;;3.23;94.96;102444.75;7400037;19;20014;-67
2022/01/14 06:35:41;;;;;;;51.13;24.27;;;;;;;3.21;94.63;102457.66;7400567;19;20037;-66
2022/01/14 06:38:10;;;;;;;55.75;25.08;;;;;;;3.16;94.60;102422.91;7400597;19;20019;-66
2022/01/14 06:40:41;;;;;;;55.33;25.38;;;;;;;3.19;94.26;102428.19;7400070;19;20021;-67
2022/01/14 06:43:09;;;;;;;59.08;25.85;;;;;;;3.18;94.12;102413.44;7399723;19;20385;-66
2022/01/14 06:45:37;;;;;;;56.90;25.02;;;;;;;3.16;94.08;102420.31;7400004;19;20011;-68
2022/01/14 06:48:06;;;;;;;56.88;26.73;;;;;;;3.15;94.15;102428.91;7398662;19;20496;-66
2022/01/14 06:50:35;;;;;;;61.75;26.90;;;;;;;3.14;93.90;102468.63;7399395;19;20023;-66
2022/01/14 06:53:03;;;;;;;56.10;24.95;;;;;;;3.14;93.82;102426.28;7400146;19;20360;-66
2022/01/14 06:55:31;;;;;;;54.60;27.10;;;;;;;3.14;93.89;102415.91;7399378;19;20023;-66
2022/01/14 06:58:02;;;;;;;61.35;26.77;;;;;;;3.13;93.40;102432.28;7400115;19;20483;-67
2022/01/14 07:00:32;;;;;;;58.03;26.90;;;;;;;3.14;93.58;102434.06;7398659;19;20010;-67
2022/01/14 07:03:21;;;;;;;59.65;26.45;;;;;;;3.13;93.54;102440.94;7399655;19;20475;-66
2022/01/14 07:05:49;;;;;;;60.53;26.73;;;;;;;3.13;93.41;102445.25;7398528;19;20018;-67
2022/01/14 07:08:18;;;;;;;55.67;26.25;;;;;;;3.14;93.15;102447.03;7398645;19;20032;-67
2022/01/14 07:10:46;;;;;;;56.47;25.13;;;;;;;3.12;93.30;102469.41;7399706;19;20014;-67
2022/01/14 07:13:17;;;;;;;57.13;26.88;;;;;;;3.12;93.17;102452.13;7399243;19;20013;-66
2022/01/14 07:15:45;;;;;;;54.63;26.08;;;;;;;3.14;93.26;102468.63;7397758;19;20018;-66
2022/01/14 07:18:15;;;;;;;57.50;27.08;;;;;;;3.15;93.08;102464.34;7399276;19;20019;-65
2022/01/14 07:20:50;;;;;;;60.47;26.30;;;;;;;3.15;92.66;102459.16;7396760;19;20007;-65
2022/01/14 07:23:18;;;;;;;55.55;26.58;;;;;;;3.18;93.39;102456.66;7399396;19;20025;-66
2022/01/14 07:25:46;;;;;;;57.50;25.80;;;;;;;3.19;92.83;102474.00;7398426;19;20034;-65
2022/01/14 07:28:17;;;;;;;57.85;27.13;;;;;;;3.18;92.97;102480.00;7397734;19;20027;-66
2022/01/14 07:30:45;;;;;;;54.90;26.15;;;;;;;3.18;92.18;102477.41;7398381;19;20032;-66
2022/01/14 07:33:14;;;;;;;61.80;27.50;;;;;;;3.16;92.59;102477.38;7397857;19;20027;-66
2022/01/14 07:35:43;;;;;;;57.65;26.55;;;;;;;3.18;92.37;102483.47;7398547;19;20333;-69
2022/01/14 07:38:11;;;;;;;59.25;26.35;;;;;;;3.19;92.26;102494.75;7397967;19;20483;-66
2022/01/14 07:40:46;;;;;;;52.92;25.13;;;;;;;3.18;92.23;102500.75;7398322;19;20048;-65
2022/01/14 07:43:14;;;;;;;;;;;;;;;3.18;92.21;102480.00;7399479;19;20015;-65
2022/01/14 07:45:44;;;;;;;56.15;26.35;;;;;;;3.20;92.50;102497.41;7398107;19;19923;-66
2022/01/14 07:48:13;;;;;;;55.40;26.92;;;;;;;3.21;92.74;102485.31;7397964;19;20019;-66
2022/01/14 07:50:41;;;;;;;54.15;26.52;;;;;;;3.23;92.47;102499.22;7398144;19;20031;-66
2022/01/14 07:53:09;;;;;;;54.17;24.67;;;;;;;3.21;92.54;102496.56;7397906;19;20011;-66
2022/01/14 07:55:37;;;;;;;62.05;27.20;;;;;;;3.24;92.80;102494.09;7397559;19;20313;-66
2022/01/14 07:58:06;;;;;;;49.60;23.80;;;;;;;3.23;92.89;102494.91;7397744;19;20031;-66
2022/01/14 08:00:35;;;;;;;55.38;24.17;;;;;;;3.25;93.17;102482.00;7397634;19;20019;-66
2022/01/14 08:03:07;;;;;;;56.92;25.60;;;;;;;3.24;93.05;102480.25;7397766;19;20015;-66
2022/01/14 08:05:35;;;;;;;54.92;24.58;;;;;;;3.24;93.26;102477.66;7397751;19;20188;-66
2022/01/14 08:08:07;;;;;;;52.38;24.27;;;;;;;3.26;93.49;102488.94;7396501;19;20029;-66
2022/01/14 08:10:36;;;;;;;59.97;25.85;;;;;;;3.27;93.35;102477.75;7394950;19;20014;-67
2022/01/14 08:13:05;;;;;;;59.90;24.08;;;;;;;3.25;93.66;102464.72;7396701;19;20510;-65
2022/01/14 08:15:34;;;;;;;53.85;24.05;;;;;;;3.28;93.57;102478.66;7395993;19;20010;-65
2022/01/14 08:18:02;;;;;;;55.22;25.05;;;;;;;3.29;93.90;102463.13;7396938;19;20022;-65
2022/01/14 08:20:33;;;;;;;56.10;25.98;;;;;;;3.30;93.69;102458.81;7395682;19;20014;-66
2022/01/14 08:23:02;;;;;;;54.05;24.20;;;;;;;3.32;93.63;102460.63;7397336;19;20011;-65
2022/01/14 08:25:32;;;;;;;51.92;24.60;;;;;;;3.32;93.66;102489.16;7396071;19;20011;-65
2022/01/14 08:28:00;;;;;;;55.45;24.13;;;;;;;3.34;93.40;102466.78;7395900;19;20019;-65
2022/01/14 08:30:28;;;;;;;56.88;24.63;;;;;;;3.36;93.58;102466.81;7397095;19;20014;-65
2022/01/14 08:32:56;;;;;;;55.75;25.92;;;;;;;3.37;93.51;102464.28;7396413;19;20022;-66
2022/01/14 08:35:25;;;;;;;52.63;25.10;;;;;;;3.38;93.20;102472.97;7396131;19;20027;-67
2022/01/14 08:37:55;;;;;;;55.22;25.63;;;;;;;3.40;93.30;102441.03;7396062;19;20015;-66
2022/01/14 08:40:24;;;;;;;55.85;25.30;;;;;;;3.42;92.87;102452.38;7396548;19;20027;-66
2022/01/14 08:42:54;;;;;;;58.17;23.92;;;;;;;3.43;92.77;102443.72;7396150;19;20011;-66
2022/01/14 08:45:23;;;;;;;58.55;26.58;;;;;;;3.45;92.80;102433.44;7396471;19;20479;-66
2022/01/14 08:47:53;;;;;;;56.13;25.40;;;;;;;3.47;92.60;102442.13;7396221;19;20074;-66
2022/01/14 08:50:22;;;;;;;48.90;24.67;;;;;;;3.49;92.68;102430.09;7393882;19;20032;-65
2022/01/14 08:52:51;;;;;;;48.17;22.77;;;;;;;3.50;92.02;102439.66;7395947;19;20019;-65
2022/01/14 08:55:23;;;;;;;52.63;24.00;;;;;;;3.52;91.92;102431.91;7395570;19;20508;-65
2022/01/14 08:57:51;;;;;;;51.47;22.98;;;;;;;3.53;91.63;102444.94;7393846;19;20106;-65
2022/01/14 09:00:21;;;;;;;55.85;24.92;;;;;;;3.55;91.49;102437.19;7395458;19;20014;-66
2022/01/14 09:02:50;;;;;;;53.08;25.40;;;;;;;3.55;90.93;102425.13;7396463;19;20377;-66
2022/01/14 09:05:18;;;;;;;50.15;24.48;;;;;;;3.61;91.20;102428.75;7395128;19;20381;-66
2022/01/14 09:07:46;;;;;;;51.17;25.30;;;;;;;3.63;91.37;102419.28;7393833;19;20027;-66
2022/01/14 09:10:15;;;;;;;58.00;25.17;;;;;;;3.63;90.51;102427.06;7394041;19;20018;-66
2022/01/14 09:12:46;;;;;;;47.08;23.50;;;;;;;3.65;90.55;102434.13;7395543;19;20018;-66
2022/01/14 09:15:15;;;;;;;44.22;22.80;;;;;;;3.72;90.88;102437.78;7395501;19;20028;-67
2022/01/14 09:17:43;;;;;;;48.88;22.85;;;;;;;3.75;90.84;102438.78;7392877;19;20501;-67
2022/01/14 09:20:13;;;;;;;49.97;21.88;;;;;;;3.78;90.23;102447.50;7394035;19;20370;-65
2022/01/14 09:22:47;;;;;;;39.50;22.85;;;;;;;3.82;90.37;102446.78;7394634;19;20018;-66
2022/01/14 09:25:16;;;;;;;43.63;21.95;;;;;;;3.83;89.21;102446.84;7395295;19;20046;-65
2022/01/14 09:27:49;;;;;;;37.60;20.85;;;;;;;3.86;89.60;102443.44;7393087;19;20019;-66
2022/01/14 09:30:17;;;;;;;40.67;21.77;;;;;;;3.91;89.35;102454.88;7393604;19;20018;-66
2022/01/14 09:32:46;;;;;;;39.13;21.55;;;;;;;3.94;89.67;102452.38;7395381;19;20036;-66
2022/01/14 09:35:15;;;;;;;39.90;21.30;;;;;;;3.96;89.18;102444.66;7394303;19;20507;-66
2022/01/14 09:37:44;;;;;;;40.22;21.85;;;;;;;3.99;88.97;102442.13;7392502;19;20025;-66
2022/01/14 09:40:14;;;;;;;39.17;20.80;;;;;;;4.04;89.56;102445.75;7394618;19;20066;-66
2022/01/14 09:42:42;;;;;;;42.92;20.70;;;;;;;4.05;89.13;102443.22;7394452;19;20019;-66
2022/01/14 09:45:14;;;;;;;37.83;20.23;;;;;;;4.07;88.92;102445.88;7395202;19;20014;-66
2022/01/14 09:47:43;;;;;;;42.35;19.92;;;;;;;4.11;88.53;102454.63;7392770;19;20027;-66
2022/01/14 09:50:11;;;;;;;37.70;20.48;;;;;;;4.13;88.53;102447.78;7392909;19;20010;-67
2022/01/14 09:52:41;;;;;;;42.38;21.23;;;;;;;4.13;88.60;102440.84;7394406;19;20014;-67
2022/01/14 09:55:10;;;;;;;38.22;20.50;;;;;;;4.15;89.07;102438.34;7394420;19;20032;-67
2022/01/14 09:57:38;;;;;;;39.90;18.77;;;;;;;4.19;88.72;102440.19;7392566;19;20484;-67
2022/01/14 10:00:08;;;;;;;38.15;19.98;;;;;;;4.20;88.73;102449.75;7394191;19;20363;-69
2022/01/14 10:02:42;;;;;;;38.92;18.77;;;;;;;4.19;88.21;102455.78;7394998;19;20019;-66
2022/01/14 10:05:12;;;;;;;40.03;19.10;;;;;;;4.22;88.45;102445.47;7394799;19;20026;-68
2022/01/14 10:07:40;;;;;;;39.88;19.23;;;;;;;4.26;88.31;102446.44;7392236;19;20022;-68
2022/01/14 10:10:24;;;;;;;35.80;18.98;;;;;;;4.25;87.83;102442.97;7392305;19;20011;-66
2022/01/14 10:12:53;;;;;;;38.38;17.33;;;;;;;4.25;88.76;102417.00;7394186;19;20036;-67
2022/01/14 10:15:21;;;;;;;31.10;17.80;;;;;;;4.30;88.26;102428.41;7393952;19;20523;-67
2022/01/14 10:17:52;;;;;;;41.13;18.52;;;;;;;4.31;88.20;102429.28;7391853;19;20014;-67
2022/01/14 10:20:20;;;;;;;45.63;18.77;;;;;;;4.33;87.83;102444.09;7393081;19;20023;-66
2022/01/14 10:22:51;;;;;;;33.42;17.27;;;;;;;4.35;87.83;102437.22;7393841;19;20010;-67
2022/01/14 10:25:20;;;;;;;36.05;16.65;;;;;;;4.36;87.94;102443.31;7394117;19;20011;-66
2022/01/14 10:27:51;;;;;;;32.90;17.83;;;;;;;4.37;88.32;102426.88;7391428;19;20044;-65
2022/01/14 10:30:23;;;;;;;35.65;17.33;;;;;;;4.39;88.07;102438.22;7391152;19;20345;-67
2022/01/14 10:32:59;;;;;;;35.22;18.52;;;;;;;4.40;87.95;102440.84;7394327;19;20090;-67
2022/01/14 10:35:31;;;;;;;32.85;16.95;;;;;;;4.41;88.21;102423.56;7399814;19;20023;-67
2022/01/14 10:38:03;;;;;;;40.47;18.55;;;;;;;4.40;87.83;102430.47;7400450;19;20516;-66
2022/01/14 10:40:33;;;;;;;36.08;18.98;;;;;;;4.43;88.17;102434.00;7400879;19;20014;-66
2022/01/14 10:43:04;;;;;;;30.75;16.33;;;;;;;4.43;88.10;102419.28;7401305;19;20021;-66
2022/01/14 10:45:32;;;;;;;35.25;16.73;;;;;;;4.44;88.45;102433.16;7401191;19;20036;-67
2022/01/14 10:48:06;;;;;;;31.95;16.83;;;;;;;4.45;88.69;102421.91;7400482;19;20015;-67
2022/01/14 10:50:38;;;;;;;36.88;17.88;;;;;;;4.43;88.46;102427.06;7399697;19;20057;-68
2022/01/14 10:53:13;;;;;;;35.22;18.55;;;;;;;4.43;88.66;102415.81;7401293;19;20032;-69
2022/01/14 10:55:44;;;;;;;38.00;18.42;;;;;;;4.39;89.02;102396.63;7399709;19;20086;-67
2022/01/14 10:58:17;;;;;;;37.53;17.42;;;;;;;4.40;89.18;102395.81;7400664;19;20014;-67
2022/01/14 11:00:47;;;;;;;41.90;19.42;;;;;;;4.41;89.32;102394.97;7402136;19;20035;-68
2022/01/14 11:03:33;;;;;;;37.33;17.98;;;;;;;4.41;89.50;102384.59;7399726;19;20028;-66
2022/01/14 11:06:17;;;;;;;40.47;19.58;;;;;;;4.42;89.93;102385.44;7399622;19;20031;-67
2022/01/14 11:08:46;;;;;;;46.13;18.77;;;;;;;4.42;89.94;102390.66;7399509;19;20503;-67
2022/01/14 11:11:16;;;;;;;36.45;19.40;;;;;;;4.36;89.91;102400.03;7399715;19;20011;-67
2022/01/14 11:13:45;;;;;;;38.83;19.25;;;;;;;4.42;89.88;102396.72;7399953;19;20031;-66
2022/01/14 11:16:13;;;;;;;36.80;19.00;;;;;;;4.40;89.63;102394.06;7398166;19;20384;-67
2022/01/14 11:18:45;;;;;;;39.20;19.33;;;;;;;4.42;89.55;102407.09;7399152;19;20014;-66
2022/01/14 11:23:54;;;;;;;41.45;19.38;;;;;;;4.45;89.77;102401.13;7399269;19;20019;-68
2022/01/14 11:26:24;;;;;;;38.55;18.77;;;;;;;4.46;89.56;102400.28;7398094;19;20015;-66
2022/01/14 11:28:53;;;;;;;36.10;18.55;;;;;;;4.48;89.91;102383.03;7398503;19;20018;-65
2022/01/14 11:31:29;;;;;;;43.50;17.92;;;;;;;4.47;89.44;102379.53;7399020;19;20475;-67
2022/01/14 11:34:02;;;;;;;35.22;17.08;;;;;;;4.50;89.38;102389.16;7398769;19;20014;-66
2022/01/14 11:36:52;;;;;;;39.53;18.63;;;;;;;4.51;89.19;102390.91;7398944;19;20360;-66
2022/01/14 11:39:21;;;;;;;43.50;18.85;;;;;;;4.51;89.63;102378.81;7399706;19;20033;-66
2022/01/14 11:41:55;;;;;;;38.28;18.02;;;;;;;4.52;89.17;102392.69;7398607;19;20082;-66
2022/01/14 11:44:38;;;;;;;;;;;;;;;4.52;88.94;102377.09;7398555;19;20033;-66
2022/01/14 11:47:07;;;;;;;45.35;20.27;;;;;;;4.55;89.36;102382.41;7397067;19;19925;-67